SWA1190 KSAT-KBNA
Flight info
| Callsign | SWA1190 |
|---|---|
| Flight time | N/A |
| Altitude | 37000 |
| Route | SNIDR2 BLUMS IAH J29 CARIN MEMFS CHSNE3 |
| Aircraft | B738/M-SDE2E3GIJ4RWZ/LB1D1 |
Departure
| Time | 2026-05-08 21:42 |
|---|---|
| Airport | San Antonio International Airport (KSAT) |
Arrival
| Time | N/A |
|---|---|
| Airport | Nashville International Airport (KBNA) |
| Time | Latitude | Longitude | Altitude | Speed | Heading |
|---|---|---|---|---|---|
| 2026-05-08 21:03 | 29.52673 | -98.47015 | 797 ft | 0 kts | 311° |
| 2026-05-08 21:30 | 29.52664 | -98.47004 | 800 ft | 4 kts | 308° |
| 2026-05-08 21:30 | 29.52649 | -98.46979 | 800 ft | 4 kts | 296° |
| 2026-05-08 21:30 | 29.52641 | -98.46950 | 793 ft | 4 kts | 268° |
| 2026-05-08 21:30 | 29.52646 | -98.46930 | 793 ft | 1 kts | 220° |
| 2026-05-08 21:34 | 29.52637 | -98.46939 | 793 ft | 3 kts | 222° |
| 2026-05-08 21:34 | 29.52614 | -98.46963 | 793 ft | 6 kts | 221° |
| 2026-05-08 21:34 | 29.52577 | -98.46973 | 794 ft | 6 kts | 169° |
| 2026-05-08 21:35 | 29.52540 | -98.46955 | 793 ft | 6 kts | 172° |
| 2026-05-08 21:35 | 29.52508 | -98.46977 | 793 ft | 6 kts | 219° |
| 2026-05-08 21:35 | 29.52476 | -98.47008 | 793 ft | 6 kts | 221° |
| 2026-05-08 21:35 | 29.52447 | -98.47039 | 793 ft | 6 kts | 222° |
| 2026-05-08 21:36 | 29.52404 | -98.47061 | 794 ft | 8 kts | 176° |
| 2026-05-08 21:36 | 29.52353 | -98.47013 | 794 ft | 10 kts | 124° |
| 2026-05-08 21:36 | 29.52367 | -98.46947 | 794 ft | 6 kts | 41° |
| 2026-05-08 21:36 | 29.52368 | -98.46946 | 794 ft | 0 kts | 41° |
| 2026-05-08 21:41 | 29.52371 | -98.46943 | 794 ft | 3 kts | 41° |
| 2026-05-08 21:41 | 29.52475 | -98.46841 | 794 ft | 51 kts | 40° |
| 2026-05-08 21:41 | 29.52912 | -98.46410 | 794 ft | 115 kts | 40° |
| 2026-05-08 21:41 | 29.53661 | -98.45671 | 829 ft | 164 kts | 41° |
| 2026-05-08 21:42 | 29.54553 | -98.44800 | 1488 ft | 168 kts | 42° |
| 2026-05-08 21:42 | 29.55428 | -98.43940 | 2211 ft | 173 kts | 42° |
| 2026-05-08 21:42 | 29.56164 | -98.42788 | 2620 ft | 191 kts | 68° |
| 2026-05-08 21:42 | 29.56693 | -98.41258 | 2871 ft | 219 kts | 69° |
| 2026-05-08 21:43 | 29.57301 | -98.39552 | 3121 ft | 240 kts | 68° |
| 2026-05-08 21:43 | 29.57964 | -98.37735 | 3492 ft | 257 kts | 68° |
| 2026-05-08 21:43 | 29.58695 | -98.35767 | 3836 ft | 276 kts | 68° |
| 2026-05-08 21:43 | 29.59467 | -98.33712 | 4602 ft | 282 kts | 68° |
| 2026-05-08 21:44 | 29.60265 | -98.31611 | 5297 ft | 290 kts | 68° |
| 2026-05-08 21:44 | 29.61080 | -98.29472 | 6091 ft | 295 kts | 68° |
| 2026-05-08 21:44 | 29.61911 | -98.27295 | 6801 ft | 300 kts | 67° |
| 2026-05-08 21:44 | 29.62749 | -98.25082 | 7535 ft | 304 kts | 69° |
| 2026-05-08 21:45 | 29.63244 | -98.22724 | 8251 ft | 306 kts | 86° |
| 2026-05-08 21:45 | 29.63447 | -98.20279 | 8975 ft | 310 kts | 87° |
| 2026-05-08 21:45 | 29.63638 | -98.17790 | 9690 ft | 315 kts | 87° |
| 2026-05-08 21:45 | 29.63843 | -98.15260 | 10270 ft | 324 kts | 86° |
| 2026-05-08 21:46 | 29.64068 | -98.12623 | 10695 ft | 337 kts | 86° |
| 2026-05-08 21:46 | 29.64312 | -98.09917 | 11304 ft | 343 kts | 86° |
| 2026-05-08 21:46 | 29.64564 | -98.07181 | 12002 ft | 346 kts | 86° |
| 2026-05-08 21:46 | 29.64819 | -98.04423 | 12717 ft | 349 kts | 86° |
| 2026-05-08 21:47 | 29.65070 | -98.01636 | 13414 ft | 352 kts | 87° |
| 2026-05-08 21:47 | 29.65187 | -97.98813 | 14051 ft | 356 kts | 91° |
| 2026-05-08 21:47 | 29.65211 | -97.95951 | 14611 ft | 361 kts | 91° |
| 2026-05-08 21:47 | 29.65220 | -97.93037 | 15096 ft | 368 kts | 91° |
| 2026-05-08 21:48 | 29.65241 | -97.90077 | 15689 ft | 372 kts | 91° |
| 2026-05-08 21:48 | 29.65276 | -97.87087 | 16276 ft | 377 kts | 90° |
| 2026-05-08 21:48 | 29.65318 | -97.84056 | 16847 ft | 382 kts | 90° |
| 2026-05-08 21:48 | 29.65359 | -97.80983 | 17416 ft | 387 kts | 90° |
| 2026-05-08 21:49 | 29.65395 | -97.77865 | 17975 ft | 392 kts | 90° |
| 2026-05-08 21:49 | 29.65430 | -97.74713 | 18475 ft | 397 kts | 90° |
| 2026-05-08 21:49 | 29.65463 | -97.71573 | 18977 ft | 400 kts | 91° |
| 2026-05-08 21:49 | 29.65497 | -97.68312 | 19498 ft | 404 kts | 91° |
| 2026-05-08 21:50 | 29.65531 | -97.65063 | 19986 ft | 409 kts | 91° |
| 2026-05-08 21:50 | 29.65563 | -97.61823 | 20471 ft | 413 kts | 91° |
| 2026-05-08 21:50 | 29.65596 | -97.58506 | 20936 ft | 417 kts | 92° |
| 2026-05-08 21:50 | 29.65629 | -97.55147 | 21362 ft | 423 kts | 92° |
| 2026-05-08 21:51 | 29.65660 | -97.51745 | 21803 ft | 428 kts | 92° |
| 2026-05-08 21:51 | 29.65692 | -97.48312 | 22306 ft | 431 kts | 92° |
| 2026-05-08 21:51 | 29.65723 | -97.44852 | 22784 ft | 435 kts | 92° |
| 2026-05-08 21:51 | 29.65754 | -97.41354 | 23237 ft | 439 kts | 93° |
| 2026-05-08 21:52 | 29.65784 | -97.37825 | 23646 ft | 444 kts | 93° |
| 2026-05-08 21:52 | 29.65814 | -97.34259 | 24054 ft | 447 kts | 93° |
| 2026-05-08 21:52 | 29.65843 | -97.30678 | 24471 ft | 450 kts | 93° |
| 2026-05-08 21:52 | 29.65871 | -97.27073 | 24866 ft | 453 kts | 93° |
| 2026-05-08 21:53 | 29.65897 | -97.23443 | 25254 ft | 456 kts | 93° |
| 2026-05-08 21:53 | 29.65921 | -97.19787 | 25631 ft | 459 kts | 94° |
| 2026-05-08 21:53 | 29.65944 | -97.16104 | 26017 ft | 462 kts | 94° |
| 2026-05-08 21:53 | 29.65967 | -97.12396 | 26392 ft | 465 kts | 94° |
| 2026-05-08 21:54 | 29.65989 | -97.08662 | 26752 ft | 468 kts | 94° |
| 2026-05-08 21:54 | 29.66010 | -97.04898 | 27105 ft | 472 kts | 94° |
| 2026-05-08 21:54 | 29.66031 | -97.01116 | 27473 ft | 475 kts | 94° |
| 2026-05-08 21:54 | 29.66051 | -96.97353 | 27828 ft | 477 kts | 94° |
| 2026-05-08 21:55 | 29.66071 | -96.93525 | 28194 ft | 480 kts | 94° |
| 2026-05-08 21:55 | 29.66091 | -96.89673 | 28537 ft | 484 kts | 94° |
| 2026-05-08 21:55 | 29.66111 | -96.85791 | 28877 ft | 487 kts | 94° |
| 2026-05-08 21:56 | 29.66146 | -96.77977 | 29593 ft | 491 kts | 94° |
| 2026-05-08 21:56 | 29.66160 | -96.74043 | 29906 ft | 494 kts | 94° |
| 2026-05-08 21:56 | 29.66173 | -96.70083 | 30157 ft | 497 kts | 94° |
| 2026-05-08 21:56 | 29.66185 | -96.66092 | 30394 ft | 501 kts | 94° |
| 2026-05-08 21:57 | 29.66197 | -96.62077 | 30615 ft | 504 kts | 94° |
| 2026-05-08 21:57 | 29.66208 | -96.58036 | 30814 ft | 508 kts | 94° |
| 2026-05-08 21:57 | 29.66218 | -96.53966 | 31071 ft | 511 kts | 94° |
| 2026-05-08 21:57 | 29.66226 | -96.49869 | 31321 ft | 514 kts | 94° |
| 2026-05-08 21:58 | 29.66229 | -96.45745 | 31554 ft | 516 kts | 94° |
| 2026-05-08 21:58 | 29.66225 | -96.41618 | 31854 ft | 517 kts | 94° |
| 2026-05-08 21:58 | 29.66219 | -96.37475 | 32094 ft | 520 kts | 94° |
| 2026-05-08 21:58 | 29.66211 | -96.33300 | 32284 ft | 523 kts | 94° |
| 2026-05-08 21:59 | 29.66202 | -96.29105 | 32466 ft | 526 kts | 94° |
| 2026-05-08 21:59 | 29.66193 | -96.24887 | 32666 ft | 529 kts | 94° |
| 2026-05-08 21:59 | 29.66183 | -96.20648 | 32859 ft | 531 kts | 94° |
| 2026-05-08 21:59 | 29.66173 | -96.16444 | 33040 ft | 534 kts | 94° |
| 2026-05-08 22:00 | 29.66161 | -96.12200 | 33213 ft | 536 kts | 94° |
| 2026-05-08 22:00 | 29.66148 | -96.07900 | 33401 ft | 539 kts | 94° |
| 2026-05-08 22:00 | 29.66133 | -96.03586 | 33610 ft | 541 kts | 94° |
| 2026-05-08 22:00 | 29.66116 | -95.99252 | 33805 ft | 543 kts | 94° |
| 2026-05-08 22:01 | 29.66098 | -95.94898 | 33970 ft | 545 kts | 94° |
| 2026-05-08 22:01 | 29.66079 | -95.90527 | 34149 ft | 547 kts | 94° |
| 2026-05-08 22:01 | 29.66059 | -95.86144 | 34329 ft | 548 kts | 94° |
| 2026-05-08 22:01 | 29.66082 | -95.81758 | 34481 ft | 551 kts | 89° |
| 2026-05-08 22:02 | 29.66700 | -95.77390 | 34613 ft | 557 kts | 74° |
| 2026-05-08 22:02 | 29.68052 | -95.73221 | 34779 ft | 557 kts | 62° |
| 2026-05-08 22:02 | 29.70026 | -95.69422 | 34954 ft | 551 kts | 47° |
| 2026-05-08 22:02 | 29.72482 | -95.66071 | 35291 ft | 545 kts | 44° |